Time;durP1;ratioP1;P1;durP2;ratioP2;P2;SDS_P1;SDS_P2;PMS_P1;PMS_P2;Temp;Humidity;BMP_temperature;BMP_pressure;BME280_temperature;BME280_humidity;BME280_pressure;Samples;Min_cycle;Max_cycle;Signal;HPM_P1;HPM_P2
2023/09/11 00:00:22;;;;;;;;;;;;;;;16.97;62.04;100889.52;109034;1264;74326;-87
2023/09/11 00:03:28;;;;;;;;;;;;;;;16.82;62.14;100889.20;109133;1266;68230;-86
2023/09/11 00:06:14;;;;;;;;;;;;;;;16.76;62.21;100891.35;109106;1266;71319;-87
2023/09/11 00:09:04;;;;;;;;;;;;;;;16.72;62.41;100888.91;109053;1264;59102;-87
2023/09/11 00:12:15;;;;;;;;;;;;;;;16.72;62.47;100883.65;109118;1268;59175;-86
2023/09/11 00:15:02;;;;;;;;;;;;;;;16.70;62.37;100882.34;109135;1264;72561;-87
2023/09/11 00:18:28;;;;;;;;;;;;;;;16.65;62.22;100877.82;108964;1268;67316;-87
2023/09/11 00:21:41;;;;;;;;;;;;;;;16.59;62.30;100882.42;109099;1268;70971;-86
2023/09/11 00:24:55;;;;;;;;;;;;;;;16.48;62.30;100872.71;109111;1263;58633;-86
2023/09/11 00:27:41;;;;;;;;;;;;;;;16.38;62.44;100875.33;109077;1264;58856;-86
2023/09/11 00:30:27;;;;;;;;;;;;;;;16.38;62.55;100873.93;109135;1266;73299;-86
2023/09/11 00:33:32;;;;;;;;;;;;;;;16.40;62.56;100874.39;108958;1268;68394;-87
2023/09/11 00:36:20;;;;;;;;;;;;;;;16.43;62.62;100871.30;109143;1266;72509;-86
2023/09/11 00:39:22;;;;;;;;;;;;;;;16.46;62.59;100872.77;108990;1264;58901;-86
2023/09/11 00:42:08;;;;;;;;;;;;;;;16.46;62.41;100872.24;108991;1266;59031;-86
2023/09/11 00:44:56;;;;;;;;;;;;;;;16.45;62.46;100876.30;108994;1264;74486;-87
2023/09/11 00:47:47;;;;;;;;;;;;;;;16.43;62.46;100876.54;108981;1266;67635;-86
2023/09/11 00:50:37;;;;;;;;;;;;;;;16.44;62.57;100873.90;109060;1264;72292;-87
2023/09/11 00:53:43;;;;;;;;;;;;;;;16.41;62.71;100871.92;108993;1269;59323;-87
2023/09/11 00:56:48;;;;;;;;;;;;;;;16.40;62.64;100869.68;109000;1264;58796;-87
2023/09/11 00:59:50;;;;;;;;;;;;;;;16.33;62.45;100869.25;108992;1268;73419;-87
2023/09/11 01:02:57;;;;;;;;;;;;;;;16.26;62.77;100871.41;109117;1264;67355;-86
2023/09/11 01:05:44;;;;;;;;;;;;;;;16.26;62.51;100870.73;109124;1264;70818;-87
2023/09/11 01:08:32;;;;;;;;;;;;;;;16.25;62.74;100873.55;108956;1270;59231;-87
2023/09/11 01:11:38;;;;;;;;;;;;;;;16.24;62.78;100871.83;109039;1264;58937;-87
2023/09/11 01:15:04;;;;;;;;;;;;;;;16.19;62.65;100868.69;109126;1264;74329;-87
2023/09/11 01:18:18;;;;;;;;;;;;;;;16.18;62.68;100867.88;109119;1264;67299;-87
2023/09/11 01:21:59;;;;;;;;;;;;;;;16.13;62.82;100863.86;109131;1264;71049;-87
2023/09/11 01:25:31;;;;;;;;;;;;;;;16.15;62.80;100865.88;108685;1274;59020;-87
2023/09/11 01:28:57;;;;;;;;;;;;;;;16.16;62.87;100863.41;108319;1276;59847;-87
2023/09/11 01:32:25;;;;;;;;;;;;;;;16.13;62.86;100864.89;107609;1283;74871;-87
2023/09/11 01:35:49;;;;;;;;;;;;;;;16.11;62.75;100865.52;107653;1283;67209;-87
2023/09/11 01:38:56;;;;;;;;;;;;;;;16.10;62.72;100864.33;107592;1283;71376;-87
2023/09/11 01:42:02;;;;;;;;;;;;;;;16.04;62.73;100865.06;107633;1287;59094;-87
2023/09/11 01:45:10;;;;;;;;;;;;;;;15.98;62.88;100865.63;107649;1283;60031;-87
2023/09/11 01:47:59;;;;;;;;;;;;;;;15.98;63.00;100867.39;107619;1283;73039;-87
2023/09/11 01:51:21;;;;;;;;;;;;;;;15.97;63.00;100864.29;107523;1283;67879;-87
2023/09/11 01:54:28;;;;;;;;;;;;;;;15.97;63.03;100863.05;107640;1283;70364;-87
2023/09/11 01:57:54;;;;;;;;;;;;;;;15.95;62.96;100861.72;107642;1283;59266;-87
2023/09/11 02:01:15;;;;;;;;;;;;;;;15.95;62.93;100857.41;108159;1280;59006;-87
2023/09/11 02:04:29;;;;;;;;;;;;;;;15.93;63.05;100858.51;108151;1276;73138;-87
2023/09/11 02:07:35;;;;;;;;;;;;;;;15.89;63.04;100857.92;108656;1271;67268;-87
2023/09/11 02:10:44;;;;;;;;;;;;;;;15.88;63.15;100860.21;108985;1263;70322;-87
2023/09/11 02:14:10;;;;;;;;;;;;;;;15.83;63.10;100857.44;109134;1263;59011;-87
2023/09/11 02:17:18;;;;;;;;;;;;;;;15.77;63.10;100854.15;109135;1263;59245;-87
2023/09/11 02:20:47;;;;;;;;;;;;;;;15.75;63.20;100856.31;109145;1264;73945;-87
2023/09/11 02:23:49;;;;;;;;;;;;;;;15.74;63.14;100854.77;109132;1264;67479;-87
2023/09/11 02:27:14;;;;;;;;;;;;;;;15.70;63.16;100859.09;109112;1264;71376;-87
2023/09/11 02:30:21;;;;;;;;;;;;;;;15.68;63.18;100857.96;109137;1264;58964;-87
2023/09/11 02:33:27;;;;;;;;;;;;;;;15.65;63.22;100858.04;109122;1263;59741;-87
2023/09/11 02:36:36;;;;;;;;;;;;;;;15.60;63.11;100857.02;109030;1264;72170;-87
2023/09/11 02:39:43;;;;;;;;;;;;;;;15.59;63.21;100852.20;109170;1264;67865;-86
2023/09/11 02:42:56;;;;;;;;;;;;;;;15.60;63.25;100849.39;109091;1263;71196;-87
2023/09/11 02:46:06;;;;;;;;;;;;;;;15.58;63.12;100848.06;109168;1263;58914;-87
2023/09/11 02:49:32;;;;;;;;;;;;;;;15.56;63.17;100850.19;109157;1269;59089;-87
2023/09/11 02:52:38;;;;;;;;;;;;;;;15.49;63.19;100854.22;109134;1263;74623;-87
2023/09/11 02:55:52;;;;;;;;;;;;;;;15.45;63.29;100849.85;109164;1263;67303;-87
2023/09/11 02:58:57;;;;;;;;;;;;;;;15.40;63.31;100848.78;109129;1263;72408;-86
2023/09/11 03:02:23;;;;;;;;;;;;;;;15.33;63.23;100848.64;109110;1264;58956;-87
2023/09/11 03:05:49;;;;;;;;;;;;;;;15.29;63.38;100849.13;109175;1263;59890;-87
2023/09/11 03:09:14;;;;;;;;;;;;;;;15.28;63.43;100846.55;109169;1263;74360;-87
2023/09/11 03:12:24;;;;;;;;;;;;;;;15.28;63.49;100848.46;109147;1263;67287;-87
2023/09/11 03:15:34;;;;;;;;;;;;;;;15.30;63.50;100847.03;109072;1263;72239;-87
2023/09/11 03:18:44;;;;;;;;;;;;;;;15.29;63.49;100846.89;109179;1263;59212;-87
2023/09/11 03:22:10;;;;;;;;;;;;;;;15.27;63.40;100847.99;109124;1263;58917;-87
2023/09/11 03:25:17;;;;;;;;;;;;;;;15.22;63.50;100841.17;109168;1263;73939;-87
2023/09/11 03:28:48;;;;;;;;;;;;;;;15.16;63.49;100838.60;109034;1263;68265;-87
2023/09/11 03:32:12;;;;;;;;;;;;;;;15.14;63.50;100839.36;109118;1263;72255;-87
2023/09/11 03:35:37;;;;;;;;;;;;;;;15.14;63.50;100838.48;109142;1263;58869;-87
2023/09/11 03:39:03;;;;;;;;;;;;;;;15.13;63.45;100837.13;109134;1263;59543;-87
2023/09/11 03:42:29;;;;;;;;;;;;;;;15.04;63.39;100836.04;108835;1267;73207;-87
2023/09/11 03:45:39;;;;;;;;;;;;;;;15.01;63.49;100838.39;108886;1267;67719;-87
2023/09/11 03:49:05;;;;;;;;;;;;;;;14.96;63.53;100833.34;108860;1267;71281;-87
2023/09/11 03:52:10;;;;;;;;;;;;;;;14.94;63.58;100828.55;108842;1267;59508;-87
2023/09/11 03:55:17;;;;;;;;;;;;;;;14.93;63.67;100825.63;108864;1267;59619;-87
2023/09/11 03:58:46;;;;;;;;;;;;;;;14.93;63.56;100824.60;108847;1267;73224;-87
2023/09/11 04:02:11;;;;;;;;;;;;;;;14.85;63.54;100825.16;108873;1266;66457;-86
2023/09/11 04:05:38;;;;;;;;;;;;;;;14.83;63.62;100824.01;108845;1267;71256;-87
2023/09/11 04:09:05;;;;;;;;;;;;;;;14.81;63.61;100820.25;108843;1266;58891;-87
2023/09/11 04:12:29;;;;;;;;;;;;;;;14.80;63.60;100821.17;108956;1264;58991;-87
2023/09/11 04:15:36;;;;;;;;;;;;;;;14.77;63.63;100817.78;109148;1264;74299;-87
2023/09/11 04:19:02;;;;;;;;;;;;;;;14.76;63.68;100817.98;109184;1264;67324;-87
2023/09/11 04:22:27;;;;;;;;;;;;;;;14.71;63.72;100816.92;109137;1264;71200;-87
2023/09/11 04:25:34;;;;;;;;;;;;;;;14.70;63.86;100817.48;109123;1264;58793;-87
2023/09/11 04:28:40;;;;;;;;;;;;;;;14.69;63.96;100818.02;109155;1264;59657;-87
2023/09/11 04:31:34;;;;;;;;;;;;;;;14.70;63.84;100821.27;109010;1264;73289;-87
2023/09/11 04:34:59;;;;;;;;;;;;;;;14.70;63.84;100820.23;109020;1264;68338;-87
2023/09/11 04:38:05;;;;;;;;;;;;;;;14.69;63.98;100816.78;109080;1264;71464;-87
2023/09/11 04:41:31;;;;;;;;;;;;;;;14.72;63.89;100817.59;109149;1264;59140;-87
2023/09/11 04:44:59;;;;;;;;;;;;;;;14.67;63.86;100820.34;105212;1264;59574;-88
2023/09/11 04:48:05;;;;;;;;;;;;;;;14.63;63.90;100819.92;109096;1264;68240;-86
2023/09/11 04:51:12;;;;;;;;;;;;;;;14.64;63.98;100821.63;109041;1263;71152;-87
2023/09/11 04:54:38;;;;;;;;;;;;;;;14.67;63.96;100818.09;109177;1264;58862;-87
2023/09/11 04:58:03;;;;;;;;;;;;;;;14.65;64.06;100817.60;108886;1267;59070;-87
2023/09/11 05:01:29;;;;;;;;;;;;;;;14.69;64.01;100819.21;108900;1267;74075;-87
2023/09/11 05:04:55;;;;;;;;;;;;;;;14.77;64.01;100818.31;108893;1267;67367;-87
2023/09/11 05:08:21;;;;;;;;;;;;;;;14.79;64.03;100815.62;108878;1267;71726;-87
2023/09/11 05:11:47;;;;;;;;;;;;;;;14.87;64.14;100819.03;108835;1267;59385;-87
2023/09/11 05:15:13;;;;;;;;;;;;;;;14.90;64.16;100813.20;108899;1267;58998;-87
2023/09/11 05:18:38;;;;;;;;;;;;;;;14.91;64.24;100817.17;108812;1268;73246;-87
2023/09/11 05:21:28;;;;;;;;;;;;;;;15.01;64.38;100812.36;108821;1268;68260;-86
2023/09/11 05:24:54;;;;;;;;;;;;;;;15.14;64.36;100816.23;108779;1269;72412;-87
2023/09/11 05:28:20;;;;;;;;;;;;;;;15.29;64.35;100816.84;108852;1267;59236;-87
2023/09/11 05:31:46;;;;;;;;;;;;;;;15.39;64.38;100817.37;108893;1267;59022;-89
2023/09/11 05:35:12;;;;;;;;;;;;;;;15.46;64.45;100815.94;108899;1267;74585;-89
2023/09/11 05:38:38;;;;;;;;;;;;;;;15.60;64.54;100819.83;108903;1266;67008;-88
2023/09/11 05:42:05;;;;;;;;;;;;;;;15.71;64.55;100814.40;108895;1267;71287;-88
2023/09/11 05:45:31;;;;;;;;;;;;;;;15.82;64.56;100810.36;108679;1271;59725;-88
2023/09/11 05:48:57;;;;;;;;;;;;;;;16.05;64.74;100809.05;108693;1270;59878;-89
2023/09/11 05:52:24;;;;;;;;;;;;;;;16.27;64.74;100807.70;108755;1269;73311;-89
2023/09/11 05:55:50;;;;;;;;;;;;;;;16.45;64.96;100806.88;108742;1270;68826;-89
2023/09/11 05:59:20;;;;;;;;;;;;;;;16.65;64.92;100812.91;108765;1270;71430;-89
2023/09/11 06:02:46;;;;;;;;;;;;;;;16.83;64.91;100811.34;108748;1270;58973;-89
2023/09/11 06:06:13;;;;;;;;;;;;;;;17.00;65.07;100807.54;108764;1270;59342;-89
2023/09/11 06:09:39;;;;;;;;;;;;;;;17.32;65.17;100807.98;108751;1270;73200;-89
2023/09/11 06:13:05;;;;;;;;;;;;;;;17.92;65.12;100805.97;108750;1270;67297;-89
2023/09/11 06:16:32;;;;;;;;;;;;;;;18.69;65.20;100801.41;108745;1270;72527;-89
2023/09/11 06:19:58;;;;;;;;;;;;;;;19.53;64.99;100806.61;108412;1276;59386;-89
2023/09/11 06:23:24;;;;;;;;;;;;;;;20.59;64.91;100809.60;108727;1269;59228;-89
2023/09/11 06:26:51;;;;;;;;;;;;;;;21.55;64.12;100806.42;108708;1270;73184;-89
2023/09/11 06:30:17;;;;;;;;;;;;;;;22.29;64.17;100804.94;108335;1276;68275;-89
2023/09/11 06:33:44;;;;;;;;;;;;;;;23.23;63.81;100807.02;107672;1283;71128;-88
2023/09/11 06:36:52;;;;;;;;;;;;;;;24.01;63.46;100804.55;107682;1283;59424;-87
2023/09/11 06:40:16;;;;;;;;;;;;;;;24.80;63.36;100806.33;107681;1282;59153;-88
2023/09/11 06:43:42;;;;;;;;;;;;;;;25.70;63.05;100808.27;107665;1283;73938;-88
2023/09/11 06:47:08;;;;;;;;;;;;;;;26.51;62.60;100810.45;107648;1283;67202;-87
2023/09/11 06:50:34;;;;;;;;;;;;;;;27.39;62.31;100810.52;107664;1283;71115;-88
2023/09/11 06:53:42;;;;;;;;;;;;;;;28.07;61.79;100810.85;100211;1283;10001521;-88
2023/09/11 06:57:07;;;;;;;;;;;;;;;28.67;61.50;100815.34;108026;1277;67425;-88
2023/09/11 07:00:14;;;;;;;;;;;;;;;29.43;61.21;100814.70;108157;1276;72043;-88
2023/09/11 07:03:40;;;;;;;;;;;;;;;30.14;60.78;100813.68;108197;1277;58788;-88
2023/09/11 07:07:05;;;;;;;;;;;;;;;30.83;60.54;100818.42;108324;1273;59304;-88
2023/09/11 07:10:31;;;;;;;;;;;;;;;31.56;59.88;100822.10;108857;1263;74489;-88
2023/09/11 07:13:54;;;;;;;;;;;;;;;31.88;59.76;100821.90;109137;1263;68016;-88
2023/09/11 07:17:04;;;;;;;;;;;;;;;32.83;59.66;100826.82;109086;1264;71180;-88
2023/09/11 07:19:50;;;;;;;;;;;;;;;33.94;59.50;100824.92;109034;1264;59274;-88
2023/09/11 07:22:36;;;;;;;;;;;;;;;34.78;58.95;100825.15;108996;1264;58958;-88
2023/09/11 07:25:23;;;;;;;;;;;;;;;35.13;58.70;100828.64;109036;1263;73293;-88
2023/09/11 07:28:13;;;;;;;;;;;;;;;35.17;58.92;100828.58;109044;1263;68379;-88
2023/09/11 07:30:59;;;;;;;;;;;;;;;35.59;58.26;100824.84;109072;1264;71468;-88
2023/09/11 07:34:05;;;;;;;;;;;;;;;35.76;57.33;100829.04;108983;1264;58865;-88
2023/09/11 07:36:53;;;;;;;;;;;;;;;35.19;57.24;100827.41;109121;1263;58938;-88
2023/09/11 07:39:40;;;;;;;;;;;;;;;34.85;57.53;100820.39;108993;1263;73457;-87
2023/09/11 07:42:26;;;;;;;;;;;;;;;35.07;56.57;100821.95;108999;1264;68258;-88
2023/09/11 07:45:33;;;;;;;;;;;;;;;34.79;56.40;100818.30;109141;1263;72195;-88
2023/09/11 07:48:39;;;;;;;;;;;;;;;35.01;56.31;100821.92;109126;1263;58810;-88
2023/09/11 07:51:25;;;;;;;;;;;;;;;36.19;54.82;100825.47;109016;1264;59648;-88
2023/09/11 07:54:13;;;;;;;;;;;;;;;37.26;53.75;100827.80;109144;1268;73505;-88
2023/09/11 07:57:01;;;;;;;;;;;;;;;38.19;52.92;100825.15;109024;1263;68961;-88
2023/09/11 07:59:48;;;;;;;;;;;;;;;39.03;52.49;100822.52;109050;1263;71664;-88
2023/09/11 08:02:34;;;;;;;;;;;;;;;39.79;51.84;100821.41;109018;1263;59210;-88
2023/09/11 08:05:20;;;;;;;;;;;;;;;40.36;51.51;100819.23;109011;1263;59612;-88
2023/09/11 08:08:07;;;;;;;;;;;;;;;40.88;51.13;100822.64;109041;1263;73849;-88
2023/09/11 08:10:53;;;;;;;;;;;;;;;41.47;50.81;100822.80;108975;1263;67666;-88
2023/09/11 08:13:39;;;;;;;;;;;;;;;41.98;50.54;100819.35;108985;1264;72478;-88
2023/09/11 08:16:26;;;;;;;;;;;;;;;42.55;49.91;100816.70;108990;1263;58256;-88
2023/09/11 08:19:12;;;;;;;;;;;;;;;43.05;49.34;100813.94;109048;1264;58998;-88
2023/09/11 08:21:58;;;;;;;;;;;;;;;43.57;49.03;100815.50;109090;1264;74329;-88
2023/09/11 08:24:44;;;;;;;;;;;;;;;43.96;48.55;100813.64;109023;1264;67297;-88
2023/09/11 08:27:29;;;;;;;;;;;;;;;43.99;47.98;100810.77;109043;1264;70765;-88
2023/09/11 08:30:16;;;;;;;;;;;;;;;43.27;47.31;100807.98;109122;1264;58877;-86
2023/09/11 08:33:03;;;;;;;;;;;;;;;41.37;47.52;100810.02;109140;1264;59280;-86
2023/09/11 08:35:48;;;;;;;;;;;;;;;39.46;47.56;100807.08;109045;1264;73637;-86
2023/09/11 08:38:35;;;;;;;;;;;;;;;37.82;47.73;100808.57;109005;1264;68567;-86
2023/09/11 08:41:23;;;;;;;;;;;;;;;36.60;47.40;100808.05;109019;1264;72440;-86
2023/09/11 08:44:17;;;;;;;;;;;;;;;35.52;47.07;100805.27;109053;1264;58895;-87
2023/09/11 08:47:06;;;;;;;;;;;;;;;34.54;46.73;100806.27;109071;1264;58793;-88
2023/09/11 08:49:54;;;;;;;;;;;;;;;33.73;46.45;100807.63;108982;1264;73367;-88
2023/09/11 08:52:48;;;;;;;;;;;;;;;32.97;46.50;100810.41;109032;1264;68158;-88
2023/09/11 08:55:34;;;;;;;;;;;;;;;32.33;46.17;100807.01;108943;1264;71326;-87
2023/09/11 08:58:21;;;;;;;;;;;;;;;31.75;46.00;100802.19;108946;1268;58967;-88
2023/09/11 09:01:07;;;;;;;;;;;;;;;31.27;45.89;100807.25;108976;1264;60261;-87
2023/09/11 09:04:01;;;;;;;;;;;;;;;30.69;45.60;100799.79;108980;1264;73086;-87
2023/09/11 09:06:48;;;;;;;;;;;;;;;30.20;45.58;100801.73;109017;1264;67173;-88
2023/09/11 09:09:34;;;;;;;;;;;;;;;29.88;45.61;100804.25;109067;1264;72412;-87
2023/09/11 09:12:22;;;;;;;;;;;;;;;29.61;45.64;100805.59;101467;1264;10001248;-88
2023/09/11 09:15:28;;;;;;;;;;;;;;;29.27;45.49;100799.83;109153;1263;74839;-88
2023/09/11 09:18:18;;;;;;;;;;;;;;;28.92;45.58;100798.95;109101;1265;67958;-88
2023/09/11 09:21:25;;;;;;;;;;;;;;;28.69;45.66;100799.70;108998;1264;72572;-87
2023/09/11 09:24:12;;;;;;;;;;;;;;;28.49;45.55;100793.63;109129;1263;58895;-87
2023/09/11 09:27:01;;;;;;;;;;;;;;;28.28;45.45;100793.84;109119;1264;58808;-87
2023/09/11 09:30:07;;;;;;;;;;;;;;;28.12;45.29;100791.17;109041;1264;74413;-87
2023/09/11 09:33:13;;;;;;;;;;;;;;;27.91;45.14;100787.98;109046;1263;68481;-87
2023/09/11 09:35:59;;;;;;;;;;;;;;;27.73;44.90;100783.02;108987;1265;72337;-87
2023/09/11 09:39:05;;;;;;;;;;;;;;;27.64;44.98;100783.08;109057;1264;59082;-87
2023/09/11 09:41:56;;;;;;;;;;;;;;;27.56;44.99;100780.84;109152;1264;58625;-87
2023/09/11 09:45:09;;;;;;;;;;;;;;;27.52;45.13;100775.61;108998;1263;73061;-87
2023/09/11 09:48:17;;;;;;;;;;;;;;;27.47;45.32;100772.27;109160;1264;67958;-87
2023/09/11 09:51:24;;;;;;;;;;;;;;;27.41;45.33;100765.55;109145;1264;71107;-87
2023/09/11 09:54:12;;;;;;;;;;;;;;;27.37;45.45;100762.86;109067;1263;58834;-87
2023/09/11 09:57:02;;;;;;;;;;;;;;;27.34;45.53;100757.08;109090;1263;60104;-87
2023/09/11 09:59:58;;;;;;;;;;;;;;;27.30;45.47;100754.38;108998;1264;73034;-87
2023/09/11 10:02:48;;;;;;;;;;;;;;;27.28;45.42;100754.08;109075;1264;67312;-87
2023/09/11 10:05:37;;;;;;;;;;;;;;;27.23;45.42;100747.08;109071;1264;71386;-87
2023/09/11 10:08:23;;;;;;;;;;;;;;;27.15;45.30;100740.64;109134;1264;58906;-87
2023/09/11 10:11:38;;;;;;;;;;;;;;;27.13;45.63;100739.55;109086;1263;58949;-87
2023/09/11 10:14:44;;;;;;;;;;;;;;;27.14;45.71;100738.45;109073;1264;73303;-87
2023/09/11 10:17:33;;;;;;;;;;;;;;;27.13;45.81;100736.55;109123;1264;68207;-87
2023/09/11 10:20:20;;;;;;;;;;;;;;;27.10;45.64;100731.13;108998;1264;70973;-87
2023/09/11 10:23:15;;;;;;;;;;;;;;;27.11;45.75;100727.91;109042;1265;59136;-87
2023/09/11 10:26:27;;;;;;;;;;;;;;;27.07;45.62;100723.65;109035;1263;58875;-87
2023/09/11 10:29:39;;;;;;;;;;;;;;;27.02;45.79;100723.30;109162;1264;73377;-87
2023/09/11 10:32:45;;;;;;;;;;;;;;;26.99;45.57;100721.48;109073;1264;67219;-87
2023/09/11 10:35:53;;;;;;;;;;;;;;;26.95;45.74;100721.55;108979;1264;71167;-87
2023/09/11 10:38:41;;;;;;;;;;;;;;;26.97;45.77;100718.95;109122;1264;58663;-87
2023/09/11 10:41:27;;;;;;;;;;;;;;;27.00;45.85;100716.61;108987;1267;58952;-87
2023/09/11 10:44:22;;;;;;;;;;;;;;;27.03;46.01;100709.23;109023;1264;74295;-87
2023/09/11 10:47:48;;;;;;;;;;;;;;;27.04;45.79;100707.23;109028;1264;68080;-87
2023/09/11 10:50:57;;;;;;;;;;;;;;;27.08;46.07;100704.38;109108;1264;72236;-87
2023/09/11 10:53:47;;;;;;;;;;;;;;;27.13;46.03;100705.73;109132;1264;59176;-87
2023/09/11 10:56:39;;;;;;;;;;;;;;;27.15;46.05;100705.44;109070;1264;58809;-87
2023/09/11 11:07:17;;;;;;;;;;;;;;;27.00;45.78;100695.35;109145;1264;70092;-87
2023/09/11 11:10:33;;;;;;;;;;;;;;;;;;;;;
2023/09/11 11:17:47;;;;;;;;;;;;;;;;;;;;;
2023/09/11 11:21:11;;;;;;;;;;;;;;;;;;;;;
2023/09/11 11:32:01;;;;;;;;;;;;;;;;;;;;;
2023/09/11 11:35:08;;;;;;;;;;;;;;;27.09;45.52;100673.41;107428;1283;73390;-86
2023/09/11 11:38:22;;;;;;;;;;;;;;;27.09;45.51;100671.80;107688;1282;66355;-87
2023/09/11 11:41:24;;;;;;;;;;;;;;;27.09;45.48;100673.52;107662;1283;71388;-87
2023/09/11 11:44:38;;;;;;;;;;;;;;;27.11;45.41;100681.87;107617;1279;59078;-87
2023/09/11 11:47:33;;;;;;;;;;;;;;;27.11;45.27;100678.48;108042;1279;60091;-87
2023/09/11 11:54:23;;;;;;;;;;;;;;;;;;;;;
2023/09/11 12:19:07;;;;;;;;;;;;;;;;;;;;;
2023/09/11 12:51:04;;;;;;;;;;;;;;;27.28;44.58;100658.67;105908;1300;72500;-86
2023/09/11 13:29:38;;;;;;;;;;;;;;;27.22;44.51;100639.86;104519;1316;59174;-87
2023/09/11 13:33:04;;;;;;;;;;;;;;;27.19;44.55;100636.77;105086;1310;59373;-88
2023/09/11 13:36:22;;;;;;;;;;;;;;;27.18;44.20;100639.69;105448;1306;73405;-87
2023/09/11 13:39:29;;;;;;;;;;;;;;;27.20;44.21;100635.09;105852;1301;67821;-87
2023/09/11 13:42:37;;;;;;;;;;;;;;;27.19;44.16;100635.02;105946;1301;72881;-87
2023/09/11 13:45:58;;;;;;;;;;;;;;;27.18;43.94;100634.38;106067;1298;58895;-87
2023/09/11 13:48:54;;;;;;;;;;;;;;;27.17;43.99;100633.96;106323;1291;60496;-87
2023/09/11 13:52:02;;;;;;;;;;;;;;;27.17;43.84;100633.95;106663;1292;74238;-87
2023/09/11 13:55:23;;;;;;;;;;;;;;;27.19;44.09;100635.48;106713;1289;68848;-88
2023/09/11 13:58:49;;;;;;;;;;;;;;;27.20;43.96;100633.50;107177;1283;71323;-89
2023/09/11 14:02:15;;;;;;;;;;;;;;;27.19;44.15;100634.11;107743;1283;58340;-88
2023/09/11 14:05:41;;;;;;;;;;;;;;;27.18;43.94;100634.58;108510;1269;59260;-89
2023/09/11 14:09:08;;;;;;;;;;;;;;;27.18;43.88;100630.66;108880;1267;73158;-89
2023/09/11 14:12:34;;;;;;;;;;;;;;;27.17;43.95;100625.40;108883;1267;67934;-90
2023/09/11 14:16:00;;;;;;;;;;;;;;;27.14;44.25;100628.46;108921;1267;72413;-89
2023/09/11 14:19:27;;;;;;;;;;;;;;;27.12;44.04;100627.47;108897;1266;59157;-90
2023/09/11 14:22:53;;;;;;;;;;;;;;;27.13;44.23;100623.45;108926;1266;59377;-89
2023/09/11 14:26:21;;;;;;;;;;;;;;;27.14;44.14;100618.77;109068;1263;74192;-89
2023/09/11 14:29:45;;;;;;;;;;;;;;;27.13;44.13;100620.48;108901;1267;67895;-89
2023/09/11 14:33:11;;;;;;;;;;;;;;;27.09;44.19;100620.08;108880;1269;71240;-89
2023/09/11 14:36:37;;;;;;;;;;;;;;;27.06;44.18;100614.86;108906;1271;59163;-89
2023/09/11 14:40:04;;;;;;;;;;;;;;;27.04;44.25;100611.30;108877;1269;59506;-89
2023/09/11 14:43:29;;;;;;;;;;;;;;;27.00;44.18;100607.75;108584;1273;74989;-88
2023/09/11 14:46:55;;;;;;;;;;;;;;;26.96;44.35;100603.48;108588;1273;67910;-89
2023/09/11 14:50:01;;;;;;;;;;;;;;;26.88;44.21;100600.13;108546;1273;71647;-85
2023/09/11 14:52:47;;;;;;;;;;;;;;;26.84;44.06;100597.84;108542;1274;59526;-85
2023/09/11 14:55:33;;;;;;;;;;;;;;;26.81;43.95;100599.48;108500;1273;59336;-85
2023/09/11 14:58:19;;;;;;;;;;;;;;;26.79;43.94;100600.65;108493;1273;73321;-85
2023/09/11 15:01:05;;;;;;;;;;;;;;;26.78;43.90;100595.45;108655;1272;67316;-85
2023/09/11 15:03:51;;;;;;;;;;;;;;;26.77;43.87;100591.33;108664;1271;71091;-85
2023/09/11 15:06:37;;;;;;;;;;;;;;;26.77;44.05;100591.98;108580;1272;59271;-85
2023/09/11 15:09:23;;;;;;;;;;;;;;;26.75;44.01;100589.34;108595;1272;59127;-85
2023/09/11 15:12:09;;;;;;;;;;;;;;;26.73;43.91;100588.29;108582;1271;74423;-85
2023/09/11 15:14:55;;;;;;;;;;;;;;;26.74;43.95;100585.26;108668;1270;68245;-85
2023/09/11 15:18:02;;;;;;;;;;;;;;;26.72;44.04;100584.48;108569;1272;71191;-88
2023/09/11 15:21:27;;;;;;;;;;;;;;;26.68;44.25;100581.39;109121;1264;58941;-88
2023/09/11 15:24:42;;;;;;;;;;;;;;;26.66;44.26;100581.12;109099;1264;58883;-87
2023/09/11 15:27:49;;;;;;;;;;;;;;;26.63;44.33;100579.76;109146;1264;73256;-88
2023/09/11 15:30:53;;;;;;;;;;;;;;;26.60;44.32;100579.31;109126;1263;68140;-87
2023/09/11 15:33:47;;;;;;;;;;;;;;;26.56;44.40;100579.47;109149;1264;71670;-88
2023/09/11 15:36:38;;;;;;;;;;;;;;;26.52;44.48;100573.56;109047;1266;58908;-85
2023/09/11 15:39:24;;;;;;;;;;;;;;;26.50;44.61;100571.36;108929;1265;59870;-85
2023/09/11 15:42:10;;;;;;;;;;;;;;;26.45;44.51;100568.02;108993;1264;73052;-85
2023/09/11 15:44:56;;;;;;;;;;;;;;;26.42;44.64;100568.67;109109;1266;68319;-85
2023/09/11 15:47:42;;;;;;;;;;;;;;;26.37;44.76;100566.72;109087;1266;72420;-85
2023/09/11 15:50:28;;;;;;;;;;;;;;;26.32;44.69;100564.11;108954;1264;58813;-85
2023/09/11 15:53:13;;;;;;;;;;;;;;;26.29;45.00;100565.60;108919;1264;58987;-85
2023/09/11 15:56:00;;;;;;;;;;;;;;;26.25;44.88;100564.86;109043;1266;73394;-85
2023/09/11 15:58:46;;;;;;;;;;;;;;;26.20;45.02;100563.52;109070;1264;67284;-85
2023/09/11 16:01:32;;;;;;;;;;;;;;;26.15;45.14;100561.98;109106;1263;71070;-85
2023/09/11 16:04:17;;;;;;;;;;;;;;;26.09;45.23;100567.42;109057;1264;58893;-86
2023/09/11 16:07:03;;;;;;;;;;;;;;;26.02;45.40;100567.44;109083;1264;58940;-85
2023/09/11 16:09:49;;;;;;;;;;;;;;;25.95;45.47;100566.48;109099;1265;73234;-85
2023/09/11 16:12:35;;;;;;;;;;;;;;;25.89;45.59;100565.21;109042;1264;67307;-85
2023/09/11 16:15:21;;;;;;;;;;;;;;;25.83;45.80;100563.95;109017;1268;71594;-85
2023/09/11 16:18:07;;;;;;;;;;;;;;;25.77;46.08;100564.06;109101;1264;59011;-85
2023/09/11 16:20:53;;;;;;;;;;;;;;;25.71;46.03;100561.90;108969;1264;59856;-85
2023/09/11 16:23:41;;;;;;;;;;;;;;;25.65;46.28;100568.55;109124;1263;73825;-85
2023/09/11 16:26:26;;;;;;;;;;;;;;;25.56;46.41;100568.49;109117;1264;69170;-85
2023/09/11 16:29:13;;;;;;;;;;;;;;;25.46;46.51;100566.69;109060;1265;71056;-85
2023/09/11 16:32:00;;;;;;;;;;;;;;;25.36;46.74;100564.27;109098;1264;59122;-85
2023/09/11 16:34:45;;;;;;;;;;;;;;;25.28;46.87;100563.14;108974;1266;59289;-85
2023/09/11 16:37:31;;;;;;;;;;;;;;;25.21;47.03;100562.36;108980;1264;72835;-85
2023/09/11 16:40:17;;;;;;;;;;;;;;;25.13;47.17;100563.13;109112;1264;67686;-85
2023/09/11 16:43:03;;;;;;;;;;;;;;;25.05;47.28;100558.23;108703;1269;307498;-85
2023/09/11 16:45:50;;;;;;;;;;;;;;;24.98;47.41;100553.70;108970;1267;59208;-85
2023/09/11 16:48:36;;;;;;;;;;;;;;;24.89;47.71;100555.66;109110;1266;59568;-85
2023/09/11 16:51:22;;;;;;;;;;;;;;;24.79;47.78;100552.86;108927;1263;74837;-85
2023/09/11 16:54:11;;;;;;;;;;;;;;;24.70;47.94;100554.23;108952;1264;67295;-85
2023/09/11 16:56:57;;;;;;;;;;;;;;;24.60;47.97;100559.79;108926;1268;72671;-85
2023/09/11 16:59:43;;;;;;;;;;;;;;;24.50;48.12;100558.77;108918;1269;58958;-85
2023/09/11 17:02:29;;;;;;;;;;;;;;;24.41;48.27;100562.50;109074;1264;59065;-85
2023/09/11 17:05:15;;;;;;;;;;;;;;;24.30;48.48;100556.98;109075;1264;73169;-85
2023/09/11 17:08:01;;;;;;;;;;;;;;;24.19;48.57;100559.70;108919;1269;69257;-85
2023/09/11 17:10:47;;;;;;;;;;;;;;;24.09;48.69;100557.20;109070;1264;71146;-85
2023/09/11 17:13:34;;;;;;;;;;;;;;;23.99;48.80;100560.64;109098;1263;58601;-85
2023/09/11 17:16:21;;;;;;;;;;;;;;;23.86;49.07;100561.77;109132;1264;58800;-85
2023/09/11 17:19:08;;;;;;;;;;;;;;;23.73;49.21;100565.66;109109;1264;73160;-85
2023/09/11 17:21:53;;;;;;;;;;;;;;;23.65;49.53;100563.64;109053;1268;68658;-85
2023/09/11 17:24:43;;;;;;;;;;;;;;;23.55;49.58;100561.21;109106;1264;72509;-85
2023/09/11 17:27:29;;;;;;;;;;;;;;;23.44;49.72;100562.98;109091;1264;58980;-85
2023/09/11 17:30:15;;;;;;;;;;;;;;;23.34;49.82;100560.34;108957;1264;59759;-85
2023/09/11 17:33:01;;;;;;;;;;;;;;;23.22;50.02;100560.86;108966;1264;75345;-85